Time;durP1;ratioP1;P1;durP2;ratioP2;P2;SDS_P1;SDS_P2;PMS_P1;PMS_P2;Temp;Humidity;BMP_temperature;BMP_pressure;BME280_temperature;BME280_humidity;BME280_pressure;Samples;Min_cycle;Max_cycle;Signal;HPM_P1;HPM_P2
2022/05/27 01:48:02;;;;;;;10.20;3.00;;;;;;;12.87;100.00;99075.14;1891070;76;22589;-73
2022/05/27 01:51:12;;;;;;;6.47;2.90;;;;;;;12.84;100.00;99081.09;1850478;77;20968;-75
2022/05/27 01:53:50;;;;;;;3.65;2.85;;;;;;;12.86;100.00;99088.33;1770897;80;21865;-74
2022/05/27 01:56:27;;;;;;;;;;;;;;;12.86;100.00;99079.73;1773420;81;20930;-74
2022/05/27 01:59:06;;;;;;;4.87;2.60;;;;;;;12.87;100.00;99083.22;1771149;81;20158;-75
2022/05/27 02:01:39;;;;;;;3.58;2.80;;;;;;;12.85;100.00;99085.38;1770625;80;20971;-75
2022/05/27 02:04:14;;;;;;;4.72;2.58;;;;;;;12.88;100.00;99079.43;1769354;80;20994;-79
2022/05/27 02:07:00;;;;;;;7.15;2.90;;;;;;;12.91;100.00;99080.23;1771066;81;21113;-74
2022/05/27 02:09:33;;;;;;;3.25;2.30;;;;;;;12.90;100.00;99074.58;1705755;84;20858;-74
2022/05/27 02:12:06;;;;;;;3.58;2.95;;;;;;;12.89;100.00;99079.71;1707171;84;21468;-75
2022/05/27 02:14:51;;;;;;;5.42;2.90;;;;;;;12.87;100.00;99076.48;1706898;84;20989;-80
2022/05/27 02:17:29;;;;;;;5.60;3.20;;;;;;;12.87;100.00;99081.88;1707344;84;20858;-72
2022/05/27 02:20:04;;;;;;;3.83;2.58;;;;;;;12.82;100.00;99069.24;1683522;85;22065;-73
2022/05/27 02:22:39;;;;;;;2.85;2.60;;;;;;;12.83;100.00;99085.66;1623318;88;20941;-77
2022/05/27 02:25:17;;;;;;;2.33;2.10;;;;;;;12.84;100.00;99077.85;1683246;85;21482;-77
2022/05/27 02:28:05;;;;;;;5.28;2.30;;;;;;;12.84;100.00;99081.09;1682963;85;21494;-74
2022/05/27 02:30:34;;;;;;;2.60;2.10;;;;;;;12.84;100.00;99081.09;1623419;88;21088;-76
2022/05/27 02:35:59;;;;;;;4.87;2.60;;;;;;;12.86;100.00;99093.72;1682589;85;21003;-75
2022/05/27 02:38:29;;;;;;;3.12;2.83;;;;;;;12.91;100.00;99093.70;1623574;88;21522;-76
2022/05/27 02:41:10;;;;;;;5.05;2.67;;;;;;;12.94;100.00;99096.38;1683339;85;21016;-75
2022/05/27 02:44:19;;;;;;;5.92;2.62;;;;;;;12.93;100.00;99099.59;1623529;88;21016;-77
2022/05/27 02:47:18;;;;;;;4.33;2.90;;;;;;;12.94;100.00;99099.08;1708168;83;20973;-74
2022/05/27 02:50:27;;;;;;;5.83;3.30;;;;;;;12.93;100.00;99104.98;1752488;81;20916;-77
2022/05/27 02:53:32;;;;;;;5.58;2.98;;;;;;;12.95;100.00;99104.71;1754894;81;21549;-79
2022/05/27 02:56:28;;;;;;;9.53;2.72;;;;;;;12.96;100.00;99100.92;1756422;81;20892;-71
2022/05/27 02:59:11;;;;;;;4.53;2.50;;;;;;;12.99;100.00;99101.18;1755957;81;21501;-77
2022/05/27 03:01:39;;;;;;;7.97;2.72;;;;;;;13.02;100.00;99106.55;1748312;81;21700;-75
2022/05/27 03:04:06;;;;;;;2.42;2.25;;;;;;;13.03;100.00;99106.80;1756173;81;20920;-76
2022/05/27 03:06:56;;;;;;;3.25;2.30;;;;;;;13.05;100.00;99112.17;1755943;81;21038;-75
2022/05/27 03:09:31;;;;;;;2.42;2.20;;;;;;;13.05;100.00;99109.47;1756101;81;21002;-75
2022/05/27 03:12:42;;;;;;;37.05;3.98;;;;;;;13.06;100.00;99116.48;1738396;81;20880;-75
2022/05/27 03:15:34;;;;;;;4.90;2.58;;;;;;;13.07;100.00;99118.09;1756358;81;21153;-72
2022/05/27 03:18:23;;;;;;;2.83;2.50;;;;;;;13.08;100.00;99117.53;1755983;81;20907;-77
2022/05/27 03:20:57;;;;;;;3.60;2.57;;;;;;;13.07;100.00;99122.13;1755293;81;20876;-75
2022/05/27 03:24:14;;;;;;;5.15;2.50;;;;;;;13.06;100.00;99114.34;1755795;81;21384;-75
2022/05/27 03:27:28;;;;;;;5.47;2.25;;;;;;;13.03;100.00;99110.32;1756261;81;21390;-75
2022/05/27 03:30:12;;;;;;;2.75;2.30;;;;;;;13.01;100.00;99108.45;1679972;85;20928;-76
2022/05/27 03:33:17;;;;;;;3.87;2.92;;;;;;;12.99;100.00;99107.91;1681862;85;20919;-79
2022/05/27 03:36:10;;;;;;;3.27;2.58;;;;;;;13.02;100.00;99109.25;1703332;84;21086;-77
2022/05/27 03:39:02;;;;;;;3.42;2.37;;;;;;;13.05;100.00;99111.37;1697316;84;20935;-76
2022/05/27 03:41:50;;;;;;;2.50;2.15;;;;;;;13.06;100.00;99111.09;1704103;84;21516;-74
2022/05/27 03:44:20;;;;;;;5.50;2.33;;;;;;;13.12;100.00;99115.10;1697374;83;25329;-76
2022/05/27 03:46:50;;;;;;;2.70;2.33;;;;;;;13.10;100.00;99114.02;1704485;84;21010;-75
2022/05/27 03:49:23;;;;;;;2.60;2.30;;;;;;;13.09;100.00;99110.53;1703398;83;20863;-77
2022/05/27 03:52:12;;;;;;;4.42;2.42;;;;;;;13.11;100.00;99112.95;1698580;82;21010;-75
2022/05/27 03:55:06;;;;;;;7.12;2.60;;;;;;;13.09;100.00;99110.53;1623782;87;21475;-77
2022/05/27 03:57:41;;;;;;;3.60;2.87;;;;;;;13.09;100.00;99114.57;1669239;85;21096;-78
2022/05/27 04:00:16;;;;;;;2.40;2.10;;;;;;;13.13;100.00;99120.22;1641993;87;21085;-76
2022/05/27 04:02:49;;;;;;;4.25;2.47;;;;;;;13.16;100.00;99114.81;1606980;89;20982;-74
2022/05/27 04:05:17;;;;;;;6.25;2.40;;;;;;;13.20;100.00;99119.88;1640205;87;21032;-72
2022/05/27 04:07:46;;;;;;;4.85;2.60;;;;;;;13.19;100.00;99113.69;1640362;87;21578;-76
2022/05/27 04:10:22;;;;;;;2.85;2.22;;;;;;;13.22;100.00;99115.81;1640423;87;21479;-76
2022/05/27 04:12:58;;;;;;;6.87;2.35;;;;;;;13.21;100.00;99112.88;1662828;86;20948;-74
2022/05/27 04:15:27;;;;;;;3.52;2.60;;;;;;;13.24;100.00;99106.91;1640767;87;21014;-77
2022/05/27 04:17:54;;;;;;;4.03;2.33;;;;;;;13.26;100.00;99110.69;1641483;87;20993;-72
2022/05/27 04:20:21;;;;;;;2.75;2.40;;;;;;;13.31;100.00;99111.22;1641859;87;20876;-77
2022/05/27 04:22:54;;;;;;;6.08;2.55;;;;;;;13.35;100.00;99106.33;1640843;86;21449;-74
2022/05/27 04:25:23;;;;;;;3.55;2.37;;;;;;;13.40;100.00;99110.84;1641333;87;21489;-75
2022/05/27 04:27:51;;;;;;;8.58;2.60;;;;;;;13.47;100.00;99114.85;1641394;87;20911;-75
2022/05/27 04:30:21;;;;;;;5.05;2.37;;;;;;;13.54;100.00;99117.75;1641531;87;21018;-77
2022/05/27 04:32:50;;;;;;;4.70;2.35;;;;;;;13.61;100.00;99115.53;1616983;87;20932;-75
2022/05/27 04:35:22;;;;;;;2.90;2.22;;;;;;;13.68;100.00;99124.09;1641642;87;21149;-73
2022/05/27 04:37:46;;;;;;;5.28;2.37;;;;;;;13.72;100.00;99119.75;1640622;87;21055;-75
2022/05/27 04:40:15;;;;;;;4.62;2.65;;;;;;;13.75;100.00;99118.37;1641159;87;20968;-70
2022/05/27 04:42:42;;;;;;;2.60;2.40;;;;;;;13.84;100.00;99098.58;1620144;87;21014;-74
2022/05/27 04:45:20;;;;;;;4.35;2.30;;;;;;;13.88;100.00;99101.50;1641360;87;21031;-77
2022/05/27 04:47:46;;;;;;;3.17;2.58;;;;;;;14.00;100.00;99109.20;1641528;87;21961;-76
2022/05/27 04:50:33;;;;;;;2.58;2.30;;;;;;;14.13;100.00;99109.84;1653694;86;20944;-75
2022/05/27 04:53:02;;;;;;;2.80;2.20;;;;;;;14.27;100.00;99104.01;1670361;86;20927;-78
2022/05/27 04:55:32;;;;;;;4.15;2.20;;;;;;;14.41;100.00;99109.52;1668961;84;20987;-77
2022/05/27 04:58:02;;;;;;;6.78;2.55;;;;;;;14.51;100.00;99104.53;1635113;86;20979;-76
2022/05/27 05:00:36;;;;;;;3.37;2.40;;;;;;;14.60;100.00;99106.05;1675902;85;21203;-76
2022/05/27 05:03:10;;;;;;;5.85;2.65;;;;;;;14.64;100.00;99111.93;1638043;86;21004;-75
2022/05/27 05:05:41;;;;;;;3.90;2.50;;;;;;;14.66;100.00;99110.30;1658585;86;20938;-74
2022/05/27 05:08:33;;;;;;;4.10;2.10;;;;;;;14.67;100.00;99108.64;1675630;85;20974;-74
2022/05/27 05:11:02;;;;;;;2.50;2.30;;;;;;;14.71;100.00;99108.87;1658888;86;20859;-76
2022/05/27 05:13:31;;;;;;;6.65;2.85;;;;;;;14.99;100.00;99113.33;1675783;85;21230;-75
2022/05/27 05:15:58;;;;;;;5.12;2.60;;;;;;;15.25;100.00;99112.92;1659232;86;20965;-74
2022/05/27 05:18:27;;;;;;;5.10;2.25;;;;;;;15.40;100.00;99104.55;1675903;85;21014;-77
2022/05/27 05:20:56;;;;;;;2.33;2.12;;;;;;;15.56;100.00;99109.72;1659537;86;20870;-79
2022/05/27 05:23:23;;;;;;;2.47;1.92;;;;;;;15.61;100.00;99095.55;1660606;86;20886;-76
2022/05/27 05:25:52;;;;;;;6.20;3.10;;;;;;;15.69;100.00;99106.23;1675635;85;21123;-75
2022/05/27 05:28:21;;;;;;;4.10;2.67;;;;;;;15.73;100.00;99098.36;1657308;86;20947;-74
2022/05/27 05:30:50;;;;;;;6.42;2.15;;;;;;;15.90;100.00;99102.63;1675885;85;20947;-76
2022/05/27 05:33:17;;;;;;;3.30;2.40;;;;;;;16.06;100.00;99096.36;1659296;86;21021;-74
2022/05/27 05:35:46;;;;;;;2.25;2.05;;;;;;;16.14;100.00;99092.94;1660497;86;20866;-73
2022/05/27 05:38:13;;;;;;;3.58;2.12;;;;;;;16.17;100.00;99106.42;1660544;86;21129;-76
2022/05/27 05:40:40;;;;;;;4.22;2.08;;;;;;;16.11;100.00;99106.29;1660501;86;21429;-74
2022/05/27 05:43:15;;;;;;;5.20;2.50;;;;;;;16.25;100.00;99102.47;1660829;86;21523;-75
2022/05/27 05:45:45;;;;;;;7.05;2.77;;;;;;;16.56;99.63;99106.43;1677986;83;21175;-76
2022/05/27 05:48:12;;;;;;;5.33;2.30;;;;;;;16.70;96.64;99103.14;1649726;86;20863;-75
2022/05/27 05:50:39;;;;;;;7.85;2.42;;;;;;;16.78;94.48;99099.76;1677635;85;21237;-76
2022/05/27 05:53:07;;;;;;;7.35;2.30;;;;;;;16.51;94.08;99100.57;1659003;86;26046;-76
2022/05/27 05:55:37;;;;;;;4.47;2.33;;;;;;;16.42;96.11;99111.33;1676053;84;20910;-75
2022/05/27 05:58:05;;;;;;;25.32;3.50;;;;;;;16.53;96.10;99106.48;1653982;86;21417;-77
2022/05/27 06:00:32;;;;;;;6.15;2.35;;;;;;;16.60;95.50;99111.50;1683047;85;20939;-75
2022/05/27 06:03:02;;;;;;;5.75;2.83;;;;;;;16.68;96.73;99108.89;1682997;85;21660;-77
2022/05/27 06:05:31;;;;;;;5.95;2.47;;;;;;;16.62;91.71;99106.03;1682899;85;20951;-71
2022/05/27 06:08:01;;;;;;;4.00;2.40;;;;;;;16.68;92.79;99106.17;1682894;85;20998;-76
2022/05/27 06:10:31;;;;;;;6.58;2.33;;;;;;;17.12;87.76;99108.72;1682710;85;21009;-78
2022/05/27 06:12:58;;;;;;;6.58;2.12;;;;;;;17.72;87.70;99113.48;1682397;85;21568;-74
2022/05/27 06:15:28;;;;;;;10.80;2.05;;;;;;;18.02;73.65;99117.30;1682934;85;21387;-76
2022/05/27 06:17:59;;;;;;;6.47;2.17;;;;;;;18.24;66.73;99114.27;1682847;85;20978;-71
2022/05/27 06:20:29;;;;;;;8.95;2.12;;;;;;;18.42;66.42;99109.11;1682998;85;21061;-71
2022/05/27 06:22:58;;;;;;;11.45;1.82;;;;;;;18.40;67.50;99102.65;1682612;85;21002;-76
2022/05/27 06:25:30;;;;;;;3.72;1.77;;;;;;;18.77;65.58;99101.05;1657133;85;21013;-75
2022/05/27 06:36:22;;;;;;;4.97;1.60;;;;;;;19.22;55.04;99101.50;1683052;85;20997;-76
2022/05/27 06:38:52;;;;;;;5.17;1.85;;;;;;;19.40;54.71;99091.95;1683234;85;20970;-78
2022/05/27 06:41:19;;;;;;;11.05;1.75;;;;;;;19.59;53.39;99092.38;1682985;85;21675;-73
2022/05/27 06:43:46;;;;;;;13.53;2.00;;;;;;;19.72;51.91;99094.72;1683199;85;21040;-76
2022/05/27 06:46:14;;;;;;;3.33;1.75;;;;;;;19.82;49.83;99079.92;1683167;85;20867;-68
2022/05/27 06:48:45;;;;;;;3.35;2.10;;;;;;;19.48;50.81;99085.14;1682772;85;21501;-76
2022/05/27 06:51:15;;;;;;;8.98;1.82;;;;;;;19.56;50.25;99084.08;1683279;85;21441;-78
2022/05/27 06:53:46;;;;;;;4.12;1.85;;;;;;;19.49;51.99;99078.56;1682934;85;21129;-76
2022/05/27 06:56:14;;;;;;;4.33;1.80;;;;;;;19.51;49.92;99049.67;1684812;83;20902;-73
2022/05/27 06:58:51;;;;;;;5.05;1.75;;;;;;;19.58;50.48;99069.59;1671812;85;20987;-78
2022/05/27 07:01:15;;;;;;;5.70;2.62;;;;;;;19.73;50.94;99063.63;1671963;85;20942;-77
2022/05/27 07:03:53;;;;;;;5.78;2.55;;;;;;;20.09;50.44;99063.72;1696079;84;20901;-76
2022/05/27 07:06:22;;;;;;;3.83;1.35;;;;;;;20.30;49.63;99065.90;1697577;83;21510;-74
2022/05/27 07:08:49;;;;;;;6.87;1.90;;;;;;;19.88;47.98;99054.91;1697694;84;20964;-73
2022/05/27 07:11:19;;;;;;;21.07;1.90;;;;;;;20.09;48.15;99059.63;1697078;84;20968;-74
2022/05/27 07:13:47;;;;;;;7.05;2.08;;;;;;;19.90;48.17;99074.45;1697017;84;20928;-70
2022/05/27 07:16:14;;;;;;;6.10;1.52;;;;;;;19.91;46.08;99071.16;1697196;84;20869;-76
2022/05/27 07:18:42;;;;;;;;;;;;;;;20.01;47.26;99072.72;1699605;84;21537;-74
2022/05/27 07:21:08;;;;;;;13.72;3.30;;;;;;;20.23;48.14;99073.00;1696852;84;20131;-75
2022/05/27 07:23:36;;;;;;;32.90;4.40;;;;;;;20.30;47.80;99064.53;1696915;84;21624;-73
2022/05/27 07:26:03;;;;;;;4.73;2.83;;;;;;;20.58;47.13;99068.17;1697293;84;20957;-75
2022/05/27 07:28:30;;;;;;;4.35;1.80;;;;;;;20.17;47.24;99066.95;1696867;84;21640;-75
2022/05/27 07:31:01;;;;;;;6.73;2.23;;;;;;;20.04;47.56;99064.70;1697273;84;21231;-76
2022/05/27 07:33:28;;;;;;;6.12;2.10;;;;;;;20.11;47.36;99062.80;1696996;84;20960;-74
2022/05/27 07:35:55;;;;;;;5.42;1.72;;;;;;;20.10;48.55;99055.20;1671558;84;21432;-75
2022/05/27 09:58:28;;;;;;;6.37;3.27;;;;;;;21.56;45.70;98962.08;1888162;74;22486;-80
2022/05/27 10:00:56;;;;;;;5.65;2.22;;;;;;;21.45;45.81;98960.13;1861873;77;20876;-72
2022/05/27 10:03:28;;;;;;;8.03;2.72;;;;;;;20.98;45.97;98958.55;1861216;77;21324;-73
2022/05/27 10:06:13;;;;;;;8.83;2.20;;;;;;;21.12;47.23;98949.49;1860778;77;20864;-76
2022/05/27 10:08:54;;;;;;;3.22;1.90;;;;;;;21.36;45.46;98953.38;1860408;76;20987;-80
2022/05/27 10:11:38;;;;;;;5.80;2.77;;;;;;;21.54;45.51;98950.70;1860619;77;20955;-75
2022/05/27 10:14:28;;;;;;;14.55;2.80;;;;;;;21.59;45.17;98943.64;1860308;77;20947;-79
2022/05/27 10:17:18;;;;;;;4.90;2.10;;;;;;;21.33;46.18;98946.66;1780149;80;21467;-74
2022/05/27 10:19:51;;;;;;;5.60;2.10;;;;;;;21.06;46.35;98943.22;1789049;80;20855;-78
2022/05/27 10:22:32;;;;;;;7.87;2.52;;;;;;;21.28;46.44;98933.24;1791470;80;20891;-74
2022/05/27 10:25:08;;;;;;;3.02;1.72;;;;;;;21.25;46.83;98935.30;1820079;78;20928;-74
2022/05/27 10:27:53;;;;;;;3.47;1.77;;;;;;;21.12;45.18;98920.05;1820024;78;20853;-71
2022/05/27 10:30:25;;;;;;;5.22;2.50;;;;;;;20.97;46.51;98899.69;1820356;78;21879;-76
2022/05/27 10:32:53;;;;;;;3.55;1.70;;;;;;;21.48;47.32;98914.40;1820101;78;20861;-76
2022/05/27 10:35:35;;;;;;;7.05;2.50;;;;;;;21.37;44.55;98908.58;1820156;78;20955;-76
2022/05/27 10:38:36;;;;;;;7.58;2.30;;;;;;;21.48;45.84;98905.63;1819964;78;20983;-79
2022/05/27 10:41:40;;;;;;;8.60;2.37;;;;;;;21.10;46.08;98902.64;1819444;78;20936;-76
2022/05/27 10:44:49;;;;;;;4.95;1.98;;;;;;;20.86;45.29;98906.13;1756159;81;21792;-73
2022/05/27 10:47:40;;;;;;;1.87;1.77;;;;;;;20.64;46.07;98897.78;1724336;83;20889;-73
2022/05/27 10:50:40;;;;;;;6.65;1.92;;;;;;;20.75;46.88;98890.77;1793921;80;20875;-77
2022/05/27 10:53:47;;;;;;;3.58;2.50;;;;;;;20.93;46.96;98894.09;1727559;83;20919;-78
2022/05/27 11:02:04;;;;;;;3.90;2.22;;;;;;;21.13;48.08;98896.50;1727180;81;21577;-74
2022/05/27 11:03:17;;;;;;;4.65;2.30;;;;;;;21.17;47.58;98886.52;1704445;83;21457;-74
2022/05/27 11:06:07;;;;;;;5.70;2.62;;;;;;;20.90;47.85;98878.98;1727886;83;21002;-75
2022/05/27 11:08:56;;;;;;;3.42;2.12;;;;;;;20.85;46.44;98848.63;1726740;83;20966;-76
2022/05/27 11:11:50;;;;;;;2.00;1.80;;;;;;;20.72;47.60;98883.82;1663331;86;20995;-72
2022/05/27 11:17:35;;;;;;;3.35;1.87;;;;;;;21.14;45.56;98860.45;1664754;86;21417;-73
2022/05/27 11:20:31;;;;;;;8.50;2.42;;;;;;;21.85;42.99;98833.20;1667137;84;21596;-75
2022/05/27 11:23:43;;;;;;;18.75;5.50;;;;;;;21.73;44.31;98858.63;1670513;86;21026;-76
2022/05/27 11:26:44;;;;;;;13.30;4.40;;;;;;;21.81;43.98;98844.61;1669790;86;20955;-73
2022/05/27 11:29:46;;;;;;;5.30;1.75;;;;;;;21.77;43.84;98836.88;1718233;81;21629;-76
2022/05/27 11:32:48;;;;;;;12.37;3.10;;;;;;;21.55;44.54;98840.91;1756426;81;21064;-75
2022/05/27 11:35:59;;;;;;;8.35;2.98;;;;;;;21.20;45.01;98847.62;1756425;81;21033;-76
2022/05/27 11:38:54;;;;;;;6.28;3.60;;;;;;;20.97;45.65;98845.92;1756803;81;21542;-73
2022/05/27 11:41:30;;;;;;;7.78;3.08;;;;;;;21.10;45.49;98839.11;1756212;81;21052;-75
2022/05/27 11:44:29;;;;;;;7.87;2.33;;;;;;;20.94;47.18;98836.23;1756721;81;21112;-71
2022/05/27 11:47:26;;;;;;;12.95;2.72;;;;;;;20.90;47.66;98828.53;1855897;77;20866;-75
2022/05/27 11:50:07;;;;;;;10.50;2.37;;;;;;;21.14;46.55;98823.62;1857841;77;21432;-73
2022/05/27 11:53:05;;;;;;;9.20;2.75;;;;;;;21.20;46.43;98829.88;1857805;77;20921;-76
2022/05/27 11:55:52;;;;;;;9.77;3.07;;;;;;;21.26;47.38;98814.64;1858493;77;20886;-73
2022/05/27 11:58:25;;;;;;;2.83;1.80;;;;;;;21.14;45.47;98824.44;1839518;76;21559;-72
2022/05/27 12:01:16;;;;;;;5.47;2.22;;;;;;;20.79;45.07;98805.55;1770412;78;20884;-73
2022/05/27 12:03:55;;;;;;;4.97;2.67;;;;;;;20.71;45.58;98809.98;1808160;78;20925;-74
2022/05/27 12:06:26;;;;;;;6.97;2.62;;;;;;;20.63;46.17;98807.59;1834513;77;20943;-75
2022/05/27 12:08:58;;;;;;;12.00;2.33;;;;;;;20.50;46.10;98804.56;1834324;76;21005;-72
2022/05/27 12:11:46;;;;;;;6.37;2.55;;;;;;;20.45;46.34;98802.06;1835122;78;21252;-75
2022/05/27 12:14:30;;;;;;;25.85;3.40;;;;;;;20.40;47.55;98808.52;1834672;78;20915;-77
2022/05/27 12:16:58;;;;;;;6.78;2.10;;;;;;;20.40;47.55;98808.52;1795111;80;20896;-78
2022/05/27 12:19:34;;;;;;;7.58;2.40;;;;;;;20.31;48.80;98798.30;1744738;80;20976;-75
2022/05/27 12:22:11;;;;;;;6.85;2.20;;;;;;;20.31;48.80;98798.30;1768532;80;21051;-73
2022/05/27 12:24:45;;;;;;;6.12;2.65;;;;;;;20.22;49.11;98792.13;1795114;80;21233;-72
2022/05/27 12:27:14;;;;;;;5.03;2.85;;;;;;;20.22;49.11;98792.13;1795154;80;21540;-71
2022/05/27 12:29:40;;;;;;;;;;;;;;;20.15;49.43;98798.69;1797699;80;20968;-74
2022/05/27 12:32:13;;;;;;;3.22;2.45;;;;;;;20.09;49.51;98790.73;1795483;80;20090;-75
2022/05/27 12:34:48;;;;;;;5.70;2.08;;;;;;;20.17;50.07;98784.17;1794651;80;20872;-75
2022/05/27 12:37:26;;;;;;;12.30;2.92;;;;;;;20.09;49.76;98769.52;1795581;80;20885;-73
2022/05/27 12:40:15;;;;;;;8.40;3.27;;;;;;;19.93;50.24;98763.09;1794865;80;20921;-70
2022/05/27 12:42:44;;;;;;;6.35;2.85;;;;;;;19.83;51.19;98775.19;1795091;80;20985;-76
2022/05/27 12:45:40;;;;;;;10.48;3.25;;;;;;;19.70;51.88;98764.25;1795315;80;21024;-76
2022/05/27 12:48:29;;;;;;;19.25;3.25;;;;;;;19.63;52.39;98758.52;1795050;80;20834;-75
2022/05/27 12:51:00;;;;;;;6.22;2.85;;;;;;;19.60;52.90;98757.00;1779554;80;26394;-70
2022/05/27 12:53:47;;;;;;;5.03;2.47;;;;;;;19.48;53.71;98756.40;1791410;78;21410;-73
2022/05/27 13:02:36;;;;;;;9.68;2.92;;;;;;;19.35;54.26;98729.66;1823246;78;20837;-75
2022/05/27 13:05:05;;;;;;;5.00;2.92;;;;;;;19.35;54.29;98716.06;1823435;78;21172;-72
2022/05/27 13:07:40;;;;;;;10.93;3.17;;;;;;;19.33;54.69;98744.19;1823063;78;20928;-73
2022/05/27 13:10:24;;;;;;;4.83;2.45;;;;;;;19.32;54.63;98728.97;1823550;78;21434;-73
2022/05/27 13:13:08;;;;;;;5.22;2.62;;;;;;;19.24;55.17;98744.23;1821762;78;20892;-76
2022/05/27 13:15:54;;;;;;;5.62;2.75;;;;;;;19.30;55.70;98731.80;1823069;78;20912;-73
2022/05/27 13:18:32;;;;;;;6.58;3.12;;;;;;;19.27;56.10;98728.61;1823232;78;25059;-73
2022/05/27 13:21:21;;;;;;;;;;;;;;;19.22;55.45;98716.56;1825937;78;21450;-71
2022/05/27 13:24:07;;;;;;;7.90;3.42;;;;;;;19.23;56.06;98720.89;1744202;82;20152;-69
2022/05/27 13:26:56;;;;;;;3.40;2.85;;;;;;;19.34;56.40;98721.85;1748232;80;21472;-73
2022/05/27 13:29:46;;;;;;;5.00;3.27;;;;;;;19.39;57.19;98715.64;1756485;81;20998;-71
2022/05/27 13:32:19;;;;;;;10.50;3.35;;;;;;;19.44;56.98;98690.16;1756068;81;21139;-73
2022/05/27 13:35:03;;;;;;;4.40;2.62;;;;;;;19.37;57.69;98704.28;1731691;81;20922;-73
2022/05/27 13:37:41;;;;;;;3.70;2.60;;;;;;;19.46;57.98;98709.67;1756254;81;20965;-71
2022/05/27 13:40:13;;;;;;;3.08;2.45;;;;;;;19.43;57.72;98704.90;1756668;81;20950;-77
2022/05/27 13:42:48;;;;;;;12.10;2.55;;;;;;;19.32;57.83;98696.90;1732054;81;20918;-75
2022/05/27 13:45:23;;;;;;;5.17;2.80;;;;;;;19.27;57.99;98697.31;1756276;81;21861;-78
2022/05/27 13:47:58;;;;;;;5.08;2.35;;;;;;;19.33;58.07;98693.03;1756294;81;20859;-75
2022/05/27 13:50:32;;;;;;;7.97;2.70;;;;;;;19.28;58.25;98686.69;1707221;81;20927;-76
2022/05/27 13:53:21;;;;;;;3.30;2.87;;;;;;;19.36;57.68;98680.94;1756475;81;20890;-75
2022/05/27 13:56:12;;;;;;;7.22;3.08;;;;;;;19.30;57.60;98675.45;1756147;81;20910;-72
2022/05/27 13:59:02;;;;;;;5.47;3.45;;;;;;;19.35;57.66;98671.16;1830074;77;21556;-73
2022/05/27 14:01:54;;;;;;;4.28;3.00;;;;;;;19.32;57.88;98667.76;1859868;77;20896;-73
2022/05/27 14:04:56;;;;;;;6.12;3.00;;;;;;;19.32;58.11;98655.52;1860240;77;20979;-72
2022/05/27 14:07:46;;;;;;;3.55;2.70;;;;;;;19.24;58.53;98659.11;1863872;77;20916;-71
2022/05/27 14:10:40;;;;;;;10.28;3.25;;;;;;;19.18;58.79;98646.29;1863993;77;20885;-75
2022/05/27 14:13:31;;;;;;;3.20;2.90;;;;;;;19.16;59.33;98645.82;1860266;77;21668;-74
2022/05/27 14:15:58;;;;;;;4.10;2.80;;;;;;;19.06;59.84;98634.78;1860260;77;20888;-74
2022/05/27 14:18:36;;;;;;;3.70;2.67;;;;;;;19.03;60.71;98638.17;1859873;77;20853;-76
2022/05/27 14:23:56;;;;;;;4.17;3.05;;;;;;;18.97;61.72;98627.25;1579547;90;21059;-77
2022/05/27 14:26:25;;;;;;;4.67;2.77;;;;;;;18.94;62.53;98621.13;1578575;89;21116;-74
2022/05/27 14:28:54;;;;;;;8.68;3.20;;;;;;;18.90;63.32;98613.38;1598749;89;20915;-74
2022/05/27 14:31:33;;;;;;;5.12;2.37;;;;;;;18.90;63.37;98601.72;1598828;89;20916;-78
2022/05/27 14:34:08;;;;;;;4.20;2.50;;;;;;;18.91;63.41;98606.80;1598813;89;21501;-76
2022/05/27 14:36:47;;;;;;;3.52;2.87;;;;;;;18.97;63.79;98607.42;1594133;89;20995;-78
2022/05/27 14:39:14;;;;;;;3.92;2.45;;;;;;;19.03;64.03;98600.64;1597757;89;22330;-77
2022/05/27 14:41:48;;;;;;;4.20;2.83;;;;;;;19.18;64.19;98593.79;1599308;89;20955;-76
2022/05/27 14:44:30;;;;;;;5.92;2.98;;;;;;;19.24;63.70;98595.19;1598837;89;20939;-78
2022/05/27 14:47:30;;;;;;;4.80;2.80;;;;;;;19.31;63.33;98582.41;1558387;89;20926;-74
2022/05/27 14:49:59;;;;;;;6.67;3.10;;;;;;;19.33;62.90;98581.48;1598161;89;20927;-73
2022/05/27 14:52:36;;;;;;;4.92;2.98;;;;;;;19.28;63.00;98572.42;1638526;86;21109;-74
2022/05/27 14:55:11;;;;;;;4.60;2.95;;;;;;;19.25;63.76;98562.77;1661721;86;20901;-75
2022/05/27 14:57:45;;;;;;;4.67;2.80;;;;;;;19.21;64.57;98552.34;1662321;86;20933;-73
2022/05/27 15:00:25;;;;;;;6.75;3.10;;;;;;;19.16;65.84;98552.55;1635709;86;20950;-71
2022/05/27 15:02:57;;;;;;;5.62;2.80;;;;;;;19.07;66.57;98556.70;1661264;86;21008;-71
2022/05/27 15:05:30;;;;;;;8.80;3.12;;;;;;;19.01;66.14;98555.30;1660916;86;21248;-74
2022/05/27 15:08:03;;;;;;;4.95;2.90;;;;;;;18.96;66.52;98554.97;1661073;86;20917;-73
2022/05/27 15:10:39;;;;;;;5.58;2.47;;;;;;;18.98;67.17;98553.26;1656548;86;21392;-75
2022/05/27 15:13:27;;;;;;;5.65;2.40;;;;;;;18.98;67.81;98551.33;1661184;86;20866;-76
2022/05/27 15:16:11;;;;;;;4.62;2.83;;;;;;;19.00;67.23;98549.08;1660996;86;20949;-71
2022/05/27 15:19:08;;;;;;;6.67;2.40;;;;;;;19.03;68.32;98544.35;1661355;86;21093;-71
2022/05/27 15:21:53;;;;;;;6.25;2.50;;;;;;;19.06;67.43;98540.16;1703832;83;20918;-75
2022/05/27 15:24:35;;;;;;;5.87;2.60;;;;;;;19.09;68.12;98529.97;1702250;84;20911;-78
2022/05/27 15:33:07;;;;;;;5.80;2.95;;;;;;;19.05;69.01;98517.59;1685834;84;21128;-74
2022/05/27 15:35:50;;;;;;;7.42;2.55;;;;;;;19.11;68.81;98505.14;1705699;84;21481;-75
2022/05/27 15:38:21;;;;;;;4.17;2.33;;;;;;;19.16;67.19;98503.59;1705547;84;20888;-77
2022/05/27 15:40:56;;;;;;;7.47;2.52;;;;;;;19.17;66.02;98485.56;1705473;84;21437;-78
2022/05/27 15:43:28;;;;;;;8.03;2.22;;;;;;;19.28;66.17;98496.25;1703952;84;20883;-75
2022/05/27 15:45:55;;;;;;;4.05;2.60;;;;;;;19.27;65.15;98497.94;1705682;84;21820;-75
2022/05/27 15:48:22;;;;;;;3.80;2.30;;;;;;;19.33;65.91;98491.16;1705588;84;20891;-75
2022/05/27 15:50:54;;;;;;;5.05;2.10;;;;;;;19.39;63.97;98483.56;1703467;84;21446;-75
2022/05/27 15:53:22;;;;;;;6.12;2.62;;;;;;;19.46;63.42;98475.07;1705855;84;20947;-78
2022/05/27 15:55:50;;;;;;;7.15;1.95;;;;;;;19.50;63.51;98476.56;1705794;84;20954;-77
2022/05/27 15:58:21;;;;;;;3.52;2.40;;;;;;;19.55;63.01;98470.08;1703614;84;20903;-74
2022/05/27 16:00:54;;;;;;;2.80;2.10;;;;;;;19.54;62.88;98471.22;1680758;84;20914;-75
2022/05/27 16:03:23;;;;;;;4.30;2.67;;;;;;;19.53;62.99;98467.72;1705284;84;21520;-73
2022/05/27 16:05:52;;;;;;;3.02;1.85;;;;;;;19.49;63.01;98458.06;1705998;84;20867;-77
2022/05/27 16:08:19;;;;;;;4.65;2.00;;;;;;;19.45;61.86;98453.09;1705636;84;21482;-71
2022/05/27 16:10:47;;;;;;;5.10;2.05;;;;;;;19.43;62.01;98443.67;1705531;84;21176;-72
2022/05/27 16:13:16;;;;;;;8.80;3.02;;;;;;;19.43;62.59;98450.48;1705687;84;20899;-73
2022/05/27 16:17:50;;;;;;;3.10;2.33;;;;;;;19.43;61.96;98436.30;1705493;84;20923;-72
2022/05/27 16:18:11;;;;;;;4.10;2.33;;;;;;;19.41;61.58;98431.76;1701826;84;20875;-75
2022/05/27 16:20:41;;;;;;;4.67;2.15;;;;;;;19.40;61.70;98428.82;1705833;83;20947;-77
2022/05/27 16:23:09;;;;;;;4.67;2.27;;;;;;;19.40;62.22;98432.09;1705298;84;21562;-78
2022/05/27 16:25:40;;;;;;;3.80;2.25;;;;;;;19.35;62.20;98426.88;1702910;84;20946;-78
2022/05/27 16:28:13;;;;;;;5.35;2.15;;;;;;;19.36;62.02;98421.67;1678421;84;20929;-78
2022/05/27 16:30:44;;;;;;;6.87;1.87;;;;;;;19.35;62.64;98409.19;1705636;84;20887;-79
2022/05/27 16:33:12;;;;;;;3.95;2.12;;;;;;;19.37;61.63;98396.83;1705472;84;20926;-77
2022/05/27 16:35:41;;;;;;;2.97;2.17;;;;;;;19.41;62.07;98400.47;1705876;84;21181;-76
2022/05/27 16:38:08;;;;;;;2.58;2.00;;;;;;;19.39;61.66;98394.56;1705154;84;20902;-75
2022/05/27 16:40:35;;;;;;;5.60;2.30;;;;;;;19.38;61.56;98397.08;1705510;84;20951;-76
2022/05/27 16:43:02;;;;;;;4.03;1.77;;;;;;;19.38;62.07;98392.99;1705595;84;20875;-73
2022/05/27 16:45:29;;;;;;;2.25;2.05;;;;;;;19.35;62.12;98385.48;1705420;84;20922;-73
2022/05/27 16:47:56;;;;;;;2.95;2.02;;;;;;;19.29;62.18;98384.14;1705616;84;20990;-78
2022/05/27 16:50:26;;;;;;;2.65;2.00;;;;;;;19.28;62.40;98378.48;1705289;84;20871;-76
2022/05/27 16:52:53;;;;;;;9.43;2.33;;;;;;;19.21;62.26;98371.45;1705700;84;20894;-73
2022/05/27 16:55:20;;;;;;;3.27;2.10;;;;;;;19.18;63.22;98373.47;1705705;84;20875;-75
2022/05/27 16:57:47;;;;;;;4.78;2.08;;;;;;;19.15;63.26;98360.56;1705680;84;20919;-73
2022/05/27 17:00:18;;;;;;;6.10;2.30;;;;;;;19.09;64.56;98349.69;1705376;84;21258;-74